Biarritz, France

6:57 AM CET on February 07, 2016 (GMT +0100)
Bayonne-Anglet | | Change Station
CLOSE
Current Station
Airport
Location: Biarritz,
Elevation: 233 ft
Nearby Weather Stations

Elev 233 ft 43.47 °N, 1.53 °W | Updated 27 minutes ago

Light Rain
Light Rain
46 °F
Feels Like 38 °F
N
28
Wind Variable Wind from NW
Gusts 44 mph

Today
High -- | Low -- °F
--% Chance of Precip.
Yesterday
High -- | Low -- °F
Precip. -- in
Pressure 29.86 in
Visibility 6.2 miles
Clouds Few 3100 ft
Mostly Cloudy 3700 ft
Mostly Cloudy 4500 ft
Windchill 38 °F
Dew Point 41 °F
Humidity 81%
Rainfall 0.00 in
Snow Depth Not available.
8:16 AM 6:24 PM
Waning Crescent, 2% visible
METAR LFBZ 070530Z AUTO 31024G38KT 9999 -RA FEW031/// BKN037/// BKN045/// ///TCU 08/05 Q1011
Pressure 29.86 in
Visibility 6.2 miles
Clouds Few 3100 ft
Mostly Cloudy 3700 ft
Mostly Cloudy 4500 ft
Windchill 38 °F
Dew Point 41 °F
Humidity 81%
Rainfall 0.00 in
Snow Depth Not available.
8:16 AM 6:24 PM
Waning Crescent, 2% visible
METAR LFBZ 070530Z AUTO 31024G38KT 9999 -RA FEW031/// BKN037/// BKN045/// ///TCU 08/05 Q1011

10-Day Weather Forecast

Almanac

Astronomy

Feb. 07, 2016 Rise Set
Actual Time
Civil Twilight
Nautical Twilight
Astronomical Twilight
Moon
Length of Visible Light
Length of Day
Tomorrow will be .
, % of the Moon is Illuminated

Today's Extremes

Country Highs Country Lows

Community

WunderPhotos

Upload Photos

1,891,167 photos uploaded!

WunderBlog® & News

Nearby

Air Quality

  Air Quality AQ Index Pollutant
Not available.

Snow Depth

Station Depth Elevation

Earthquake Activity

City Distance Mag. Time & Date
Minimum magnitude displayed is 2.5.

Coastal Water Temperatures

Place Temperature

Stations

Nearby Weather Stations

Station Location Temp. Windchill Dew Point Humidity Wind Precip. Elev Updated Type